TAM3720 SBBR-SBCF
Flight info
| Callsign | TAM3720 |
|---|---|
| Flight time | 0h 51m |
| Altitude | 33000 |
| Route | GEPMO UZ35 REINA |
| Aircraft | A320/M-SDE3FGHIRWY/LB1 |
Departure
| Time | 2026-04-27 00:19 |
|---|---|
| Airport | Presidente Juscelino Kubitschek International Airport (SBBR) |
Arrival
| Time | 2026-04-27 01:10 |
|---|---|
| Airport | Tancredo Neves International Airport (SBCF) |
| Time | Latitude | Longitude | Altitude | Speed | Heading |
|---|---|---|---|---|---|
| 2026-04-27 00:03 | -15.87275 | -47.91980 | 3448 ft | 0 kts | 356° |
| 2026-04-27 00:09 | -15.87292 | -47.91979 | 3471 ft | 2 kts | 356° |
| 2026-04-27 00:09 | -15.87309 | -47.91977 | 3472 ft | 2 kts | 21° |
| 2026-04-27 00:09 | -15.87320 | -47.91987 | 3471 ft | 0 kts | 82° |
| 2026-04-27 00:10 | -15.87322 | -47.91971 | 3473 ft | 7 kts | 106° |
| 2026-04-27 00:11 | -15.87329 | -47.91885 | 3472 ft | 17 kts | 82° |
| 2026-04-27 00:11 | -15.87319 | -47.91750 | 3472 ft | 21 kts | 85° |
| 2026-04-27 00:11 | -15.87376 | -47.91671 | 3471 ft | 15 kts | 168° |
| 2026-04-27 00:11 | -15.87517 | -47.91658 | 3469 ft | 25 kts | 179° |
| 2026-04-27 00:12 | -15.87679 | -47.91647 | 3464 ft | 21 kts | 173° |
| 2026-04-27 00:12 | -15.87733 | -47.91661 | 3462 ft | 3 kts | 278° |
| 2026-04-27 00:12 | -15.87739 | -47.91716 | 3463 ft | 13 kts | 265° |
| 2026-04-27 00:12 | -15.87746 | -47.91837 | 3466 ft | 20 kts | 266° |
| 2026-04-27 00:13 | -15.87757 | -47.91990 | 3469 ft | 22 kts | 267° |
| 2026-04-27 00:13 | -15.87765 | -47.92163 | 3472 ft | 24 kts | 267° |
| 2026-04-27 00:13 | -15.87776 | -47.92309 | 3474 ft | 14 kts | 265° |
| 2026-04-27 00:13 | -15.87784 | -47.92436 | 3476 ft | 21 kts | 266° |
| 2026-04-27 00:14 | -15.87796 | -47.92612 | 3477 ft | 24 kts | 265° |
| 2026-04-27 00:14 | -15.87811 | -47.92805 | 3480 ft | 29 kts | 264° |
| 2026-04-27 00:14 | -15.87815 | -47.92973 | 3482 ft | 21 kts | 265° |
| 2026-04-27 00:14 | -15.87827 | -47.93133 | 3485 ft | 23 kts | 263° |
| 2026-04-27 00:15 | -15.87837 | -47.93312 | 3497 ft | 26 kts | 271° |
| 2026-04-27 00:15 | -15.87852 | -47.93482 | 3503 ft | 23 kts | 266° |
| 2026-04-27 00:15 | -15.87864 | -47.93661 | 3507 ft | 26 kts | 266° |
| 2026-04-27 00:15 | -15.87872 | -47.93808 | 3512 ft | 16 kts | 266° |
| 2026-04-27 00:16 | -15.87881 | -47.93947 | 3511 ft | 22 kts | 257° |
| 2026-04-27 00:16 | -15.87943 | -47.93996 | 3510 ft | 12 kts | 183° |
| 2026-04-27 00:16 | -15.87958 | -47.93995 | 3512 ft | 0 kts | 174° |
| 2026-04-27 00:17 | -15.88008 | -47.93990 | 3514 ft | 15 kts | 175° |
| 2026-04-27 00:17 | -15.88071 | -47.93976 | 3514 ft | 1 kts | 103° |
| 2026-04-27 00:17 | -15.88068 | -47.93971 | 3513 ft | 1 kts | 78° |
| 2026-04-27 00:17 | -15.88066 | -47.93959 | 3511 ft | 2 kts | 79° |
| 2026-04-27 00:18 | -15.88064 | -47.93940 | 3510 ft | 3 kts | 83° |
| 2026-04-27 00:18 | -15.88053 | -47.93836 | 3508 ft | 35 kts | 84° |
| 2026-04-27 00:18 | -15.88021 | -47.93324 | 3496 ft | 107 kts | 86° |
| 2026-04-27 00:18 | -15.87961 | -47.92339 | 3482 ft | 163 kts | 86° |
| 2026-04-27 00:19 | -15.87907 | -47.91570 | 3911 ft | 157 kts | 85° |
| 2026-04-27 00:19 | -15.88245 | -47.90197 | 4746 ft | 158 kts | 141° |
| 2026-04-27 00:19 | -15.89291 | -47.89689 | 5061 ft | 178 kts | 162° |
| 2026-04-27 00:19 | -15.90563 | -47.89317 | 5313 ft | 201 kts | 163° |
| 2026-04-27 00:20 | -15.91990 | -47.88901 | 5566 ft | 224 kts | 163° |
| 2026-04-27 00:20 | -15.93574 | -47.88438 | 5837 ft | 249 kts | 163° |
| 2026-04-27 00:20 | -15.94738 | -47.88097 | 6089 ft | 265 kts | 163° |
| 2026-04-27 00:20 | -15.96559 | -47.87560 | 6723 ft | 277 kts | 164° |
| 2026-04-27 00:21 | -15.98434 | -47.87000 | 7521 ft | 283 kts | 164° |
| 2026-04-27 00:21 | -16.00338 | -47.86426 | 8347 ft | 287 kts | 164° |
| 2026-04-27 00:21 | -16.02259 | -47.85844 | 9265 ft | 288 kts | 164° |
| 2026-04-27 00:21 | -16.04196 | -47.85261 | 10144 ft | 291 kts | 165° |
| 2026-04-27 00:22 | -16.06147 | -47.84579 | 10537 ft | 311 kts | 156° |
| 2026-04-27 00:22 | -16.08067 | -47.83403 | 10960 ft | 327 kts | 143° |
| 2026-04-27 00:22 | -16.09804 | -47.81837 | 11623 ft | 333 kts | 139° |
| 2026-04-27 00:22 | -16.11549 | -47.80227 | 12299 ft | 338 kts | 139° |
| 2026-04-27 00:23 | -16.13326 | -47.78602 | 13011 ft | 342 kts | 139° |
| 2026-04-27 00:23 | -16.15037 | -47.77045 | 13689 ft | 345 kts | 139° |
| 2026-04-27 00:23 | -16.16484 | -47.75730 | 14201 ft | 348 kts | 139° |
| 2026-04-27 00:24 | -16.18314 | -47.74063 | 14816 ft | 351 kts | 139° |
| 2026-04-27 00:24 | -16.20160 | -47.72377 | 15414 ft | 355 kts | 139° |
| 2026-04-27 00:24 | -16.22022 | -47.70674 | 15996 ft | 358 kts | 138° |
| 2026-04-27 00:24 | -16.23909 | -47.68946 | 16584 ft | 362 kts | 138° |
| 2026-04-27 00:25 | -16.25808 | -47.67209 | 17156 ft | 365 kts | 138° |
| 2026-04-27 00:25 | -16.27702 | -47.65479 | 17716 ft | 369 kts | 138° |
| 2026-04-27 00:25 | -16.29663 | -47.63684 | 18287 ft | 372 kts | 138° |
| 2026-04-27 00:25 | -16.31590 | -47.61919 | 18769 ft | 376 kts | 138° |
| 2026-04-27 00:26 | -16.33560 | -47.60114 | 19265 ft | 378 kts | 138° |
| 2026-04-27 00:26 | -16.35540 | -47.58297 | 19770 ft | 381 kts | 138° |
| 2026-04-27 00:26 | -16.37537 | -47.56465 | 20271 ft | 383 kts | 138° |
| 2026-04-27 00:26 | -16.39544 | -47.54623 | 20776 ft | 386 kts | 139° |
| 2026-04-27 00:27 | -16.41565 | -47.52770 | 21276 ft | 388 kts | 139° |
| 2026-04-27 00:27 | -16.43599 | -47.50905 | 21773 ft | 391 kts | 139° |
| 2026-04-27 00:27 | -16.45646 | -47.49025 | 22260 ft | 394 kts | 139° |
| 2026-04-27 00:27 | -16.47706 | -47.47131 | 22752 ft | 397 kts | 139° |
| 2026-04-27 00:28 | -16.49783 | -47.45221 | 23245 ft | 400 kts | 139° |
| 2026-04-27 00:28 | -16.51875 | -47.43296 | 23723 ft | 402 kts | 139° |
| 2026-04-27 00:28 | -16.53958 | -47.41382 | 24125 ft | 405 kts | 139° |
| 2026-04-27 00:28 | -16.56080 | -47.39432 | 24532 ft | 408 kts | 139° |
| 2026-04-27 00:29 | -16.58219 | -47.37470 | 24941 ft | 410 kts | 139° |
| 2026-04-27 00:29 | -16.60365 | -47.35500 | 25352 ft | 412 kts | 139° |
| 2026-04-27 00:29 | -16.62519 | -47.33514 | 25755 ft | 414 kts | 139° |
| 2026-04-27 00:29 | -16.64682 | -47.31516 | 26135 ft | 417 kts | 139° |
| 2026-04-27 00:30 | -16.66859 | -47.29506 | 26513 ft | 419 kts | 139° |
| 2026-04-27 00:30 | -16.69050 | -47.27489 | 26887 ft | 421 kts | 139° |
| 2026-04-27 00:30 | -16.71257 | -47.25463 | 27256 ft | 424 kts | 139° |
| 2026-04-27 00:30 | -16.73476 | -47.23424 | 27618 ft | 426 kts | 139° |
| 2026-04-27 00:31 | -16.75701 | -47.21374 | 27968 ft | 428 kts | 139° |
| 2026-04-27 00:31 | -16.77938 | -47.19309 | 28323 ft | 430 kts | 138° |
| 2026-04-27 00:31 | -16.80161 | -47.17254 | 28664 ft | 433 kts | 138° |
| 2026-04-27 00:31 | -16.82422 | -47.15164 | 29012 ft | 435 kts | 138° |
| 2026-04-27 00:32 | -16.84694 | -47.13067 | 29352 ft | 437 kts | 138° |
| 2026-04-27 00:32 | -16.86968 | -47.10949 | 29681 ft | 440 kts | 137° |
| 2026-04-27 00:32 | -16.89234 | -47.08784 | 30019 ft | 442 kts | 137° |
| 2026-04-27 00:32 | -16.91497 | -47.06584 | 30286 ft | 445 kts | 136° |
| 2026-04-27 00:33 | -16.93763 | -47.04369 | 30551 ft | 447 kts | 136° |
| 2026-04-27 00:33 | -16.96037 | -47.02148 | 30830 ft | 449 kts | 136° |
| 2026-04-27 00:33 | -16.98328 | -46.99917 | 31087 ft | 451 kts | 136° |
| 2026-04-27 00:33 | -17.00639 | -46.97678 | 31346 ft | 453 kts | 136° |
| 2026-04-27 00:34 | -17.02956 | -46.95436 | 31620 ft | 455 kts | 137° |
| 2026-04-27 00:34 | -17.05280 | -46.93194 | 31979 ft | 454 kts | 137° |
| 2026-04-27 00:34 | -17.07603 | -46.90957 | 32335 ft | 454 kts | 137° |
| 2026-04-27 00:34 | -17.09920 | -46.88724 | 32692 ft | 454 kts | 137° |
| 2026-04-27 00:35 | -17.12241 | -46.86484 | 33000 ft | 454 kts | 137° |
| 2026-04-27 00:35 | -17.14522 | -46.84278 | 33070 ft | 448 kts | 136° |
| 2026-04-27 00:35 | -17.16768 | -46.82101 | 33081 ft | 434 kts | 136° |
| 2026-04-27 00:35 | -17.18958 | -46.79971 | 33081 ft | 427 kts | 136° |
| 2026-04-27 00:36 | -17.23287 | -46.75757 | 33081 ft | 424 kts | 136° |
| 2026-04-27 00:36 | -17.27597 | -46.71552 | 33079 ft | 424 kts | 136° |
| 2026-04-27 00:37 | -17.31908 | -46.67336 | 33080 ft | 424 kts | 136° |
| 2026-04-27 00:37 | -17.36223 | -46.63123 | 33080 ft | 424 kts | 136° |
| 2026-04-27 00:38 | -17.40537 | -46.58912 | 33072 ft | 424 kts | 136° |
| 2026-04-27 00:38 | -17.44850 | -46.54702 | 33071 ft | 424 kts | 136° |
| 2026-04-27 00:39 | -17.49158 | -46.50493 | 33071 ft | 423 kts | 136° |
| 2026-04-27 00:39 | -17.53460 | -46.46274 | 33071 ft | 424 kts | 136° |
| 2026-04-27 00:40 | -17.57764 | -46.42053 | 33073 ft | 424 kts | 136° |
| 2026-04-27 00:40 | -17.62073 | -46.37826 | 33077 ft | 424 kts | 136° |
| 2026-04-27 00:41 | -17.66379 | -46.33605 | 33083 ft | 424 kts | 136° |
| 2026-04-27 00:41 | -17.70682 | -46.29383 | 33076 ft | 423 kts | 136° |
| 2026-04-27 00:42 | -17.74986 | -46.25164 | 33072 ft | 423 kts | 136° |
| 2026-04-27 00:42 | -17.79262 | -46.20954 | 33073 ft | 424 kts | 136° |
| 2026-04-27 00:43 | -17.83561 | -46.16715 | 33073 ft | 424 kts | 136° |
| 2026-04-27 00:43 | -17.87861 | -46.12486 | 33079 ft | 423 kts | 136° |
| 2026-04-27 00:44 | -17.92159 | -46.08257 | 33086 ft | 423 kts | 136° |
| 2026-04-27 00:44 | -17.96455 | -46.04030 | 33085 ft | 423 kts | 136° |
| 2026-04-27 00:45 | -18.00712 | -45.99824 | 33085 ft | 423 kts | 136° |
| 2026-04-27 00:45 | -18.04994 | -45.95589 | 33091 ft | 422 kts | 136° |
| 2026-04-27 00:46 | -18.09273 | -45.91356 | 33080 ft | 422 kts | 136° |
| 2026-04-27 00:46 | -18.13553 | -45.87125 | 33079 ft | 423 kts | 136° |
| 2026-04-27 00:47 | -18.17846 | -45.82885 | 33081 ft | 423 kts | 136° |
| 2026-04-27 00:47 | -18.22135 | -45.78647 | 33081 ft | 423 kts | 136° |
| 2026-04-27 00:48 | -18.26416 | -45.74405 | 33081 ft | 423 kts | 136° |
| 2026-04-27 00:48 | -18.30686 | -45.70160 | 33082 ft | 422 kts | 136° |
| 2026-04-27 00:49 | -18.34931 | -45.65945 | 33079 ft | 422 kts | 136° |
| 2026-04-27 00:49 | -18.39205 | -45.61706 | 33078 ft | 422 kts | 136° |
| 2026-04-27 00:50 | -18.45317 | -45.55074 | 33079 ft | 421 kts | 127° |
| 2026-04-27 00:50 | -18.47096 | -45.52618 | 32683 ft | 421 kts | 127° |
| 2026-04-27 00:51 | -18.48876 | -45.50175 | 32172 ft | 419 kts | 128° |
| 2026-04-27 00:51 | -18.50647 | -45.47752 | 31697 ft | 417 kts | 128° |
| 2026-04-27 00:51 | -18.52430 | -45.45312 | 30740 ft | 426 kts | 128° |
| 2026-04-27 00:51 | -18.54266 | -45.42803 | 29665 ft | 438 kts | 128° |
| 2026-04-27 00:52 | -18.56137 | -45.40244 | 28837 ft | 440 kts | 128° |
| 2026-04-27 00:52 | -18.58001 | -45.37686 | 28197 ft | 438 kts | 128° |
| 2026-04-27 00:52 | -18.59844 | -45.35147 | 27612 ft | 434 kts | 128° |
| 2026-04-27 00:52 | -18.61671 | -45.32623 | 27053 ft | 431 kts | 128° |
| 2026-04-27 00:53 | -18.63482 | -45.30124 | 26501 ft | 427 kts | 128° |
| 2026-04-27 00:53 | -18.65283 | -45.27647 | 25963 ft | 424 kts | 128° |
| 2026-04-27 00:53 | -18.67073 | -45.25190 | 25438 ft | 421 kts | 128° |
| 2026-04-27 00:53 | -18.68858 | -45.22739 | 24923 ft | 418 kts | 128° |
| 2026-04-27 00:54 | -18.70599 | -45.20348 | 24429 ft | 415 kts | 128° |
| 2026-04-27 00:54 | -18.72354 | -45.17939 | 23949 ft | 412 kts | 128° |
| 2026-04-27 00:54 | -18.74091 | -45.15551 | 23438 ft | 409 kts | 128° |
| 2026-04-27 00:54 | -18.75818 | -45.13172 | 22913 ft | 406 kts | 128° |
| 2026-04-27 00:55 | -18.77532 | -45.10810 | 22411 ft | 403 kts | 128° |
| 2026-04-27 00:55 | -18.79231 | -45.08470 | 21904 ft | 401 kts | 128° |
| 2026-04-27 00:55 | -18.80921 | -45.06142 | 21418 ft | 398 kts | 128° |
| 2026-04-27 00:55 | -18.82598 | -45.03827 | 20931 ft | 395 kts | 128° |
| 2026-04-27 00:56 | -18.84264 | -45.01528 | 20466 ft | 393 kts | 128° |
| 2026-04-27 00:56 | -18.85918 | -44.99246 | 19995 ft | 390 kts | 128° |
| 2026-04-27 00:56 | -18.87559 | -44.96975 | 19537 ft | 388 kts | 128° |
| 2026-04-27 00:56 | -18.89188 | -44.94719 | 19084 ft | 385 kts | 127° |
| 2026-04-27 00:57 | -18.90806 | -44.92478 | 18642 ft | 383 kts | 127° |
| 2026-04-27 00:57 | -18.92417 | -44.90252 | 18185 ft | 380 kts | 127° |
| 2026-04-27 00:57 | -18.94019 | -44.88033 | 17711 ft | 377 kts | 127° |
| 2026-04-27 00:57 | -18.95602 | -44.85840 | 17267 ft | 374 kts | 127° |
| 2026-04-27 00:58 | -18.97172 | -44.83661 | 16837 ft | 371 kts | 127° |
| 2026-04-27 00:58 | -18.98729 | -44.81501 | 16377 ft | 368 kts | 128° |
| 2026-04-27 00:58 | -19.00271 | -44.79360 | 15969 ft | 365 kts | 128° |
| 2026-04-27 00:58 | -19.01801 | -44.77236 | 15570 ft | 361 kts | 128° |
| 2026-04-27 00:59 | -19.03321 | -44.75130 | 15178 ft | 358 kts | 128° |
| 2026-04-27 00:59 | -19.04824 | -44.73049 | 14786 ft | 355 kts | 128° |
| 2026-04-27 00:59 | -19.06315 | -44.70988 | 14398 ft | 351 kts | 128° |
| 2026-04-27 00:59 | -19.07793 | -44.68943 | 14010 ft | 348 kts | 128° |
| 2026-04-27 01:00 | -19.09254 | -44.66917 | 13588 ft | 345 kts | 128° |
| 2026-04-27 01:00 | -19.10706 | -44.64898 | 13119 ft | 343 kts | 127° |
| 2026-04-27 01:00 | -19.12124 | -44.62922 | 12693 ft | 340 kts | 127° |
| 2026-04-27 01:00 | -19.13548 | -44.60943 | 12272 ft | 337 kts | 127° |
| 2026-04-27 01:01 | -19.14954 | -44.58985 | 12004 ft | 330 kts | 127° |
| 2026-04-27 01:01 | -19.16377 | -44.57005 | 12104 ft | 352 kts | 127° |
| 2026-04-27 01:01 | -19.17917 | -44.54866 | 12094 ft | 375 kts | 127° |
| 2026-04-27 01:01 | -19.19520 | -44.52641 | 12099 ft | 381 kts | 127° |
| 2026-04-27 01:02 | -19.21130 | -44.50406 | 12100 ft | 383 kts | 127° |
| 2026-04-27 01:02 | -19.22745 | -44.48161 | 12095 ft | 383 kts | 127° |
| 2026-04-27 01:02 | -19.24357 | -44.45917 | 12102 ft | 383 kts | 127° |
| 2026-04-27 01:02 | -19.25967 | -44.43674 | 12099 ft | 383 kts | 127° |
| 2026-04-27 01:03 | -19.27575 | -44.41428 | 12099 ft | 383 kts | 127° |
| 2026-04-27 01:03 | -19.29181 | -44.39182 | 12101 ft | 382 kts | 127° |
| 2026-04-27 01:03 | -19.30765 | -44.36968 | 12105 ft | 382 kts | 127° |
| 2026-04-27 01:03 | -19.32225 | -44.34619 | 12102 ft | 383 kts | 116° |
| 2026-04-27 01:04 | -19.33170 | -44.31986 | 12106 ft | 383 kts | 110° |
| 2026-04-27 01:04 | -19.34046 | -44.29333 | 11865 ft | 380 kts | 110° |
| 2026-04-27 01:04 | -19.34906 | -44.26690 | 11257 ft | 378 kts | 109° |
| 2026-04-27 01:04 | -19.35751 | -44.24069 | 10621 ft | 374 kts | 109° |
| 2026-04-27 01:05 | -19.36811 | -44.21588 | 10001 ft | 369 kts | 124° |
| 2026-04-27 01:05 | -19.38530 | -44.19614 | 9317 ft | 364 kts | 139° |
| 2026-04-27 01:05 | -19.40455 | -44.17891 | 8637 ft | 360 kts | 140° |
| 2026-04-27 01:05 | -19.42369 | -44.16195 | 7979 ft | 357 kts | 140° |
| 2026-04-27 01:06 | -19.44262 | -44.14518 | 7319 ft | 351 kts | 140° |
| 2026-04-27 01:06 | -19.46070 | -44.12882 | 6690 ft | 333 kts | 139° |
| 2026-04-27 01:06 | -19.47778 | -44.11309 | 6150 ft | 316 kts | 139° |
| 2026-04-27 01:06 | -19.49354 | -44.09841 | 5930 ft | 290 kts | 138° |
| 2026-04-27 01:07 | -19.50825 | -44.08461 | 5571 ft | 274 kts | 139° |
| 2026-04-27 01:07 | -19.52219 | -44.07171 | 5236 ft | 257 kts | 139° |
| 2026-04-27 01:07 | -19.53507 | -44.05985 | 5008 ft | 237 kts | 138° |
| 2026-04-27 01:07 | -19.54715 | -44.04871 | 4711 ft | 224 kts | 138° |
| 2026-04-27 01:08 | -19.55481 | -44.04164 | 4554 ft | 215 kts | 138° |
| 2026-04-27 01:08 | -19.56576 | -44.03154 | 4250 ft | 203 kts | 138° |
| 2026-04-27 01:08 | -19.57604 | -44.02205 | 3984 ft | 189 kts | 138° |
| 2026-04-27 01:08 | -19.58555 | -44.01327 | 3760 ft | 174 kts | 138° |
| 2026-04-27 01:09 | -19.59437 | -44.00512 | 3546 ft | 163 kts | 138° |
| 2026-04-27 01:09 | -19.60272 | -43.99746 | 3293 ft | 155 kts | 140° |
| 2026-04-27 01:09 | -19.61074 | -43.99015 | 3110 ft | 150 kts | 141° |
| 2026-04-27 01:09 | -19.61856 | -43.98287 | 2949 ft | 150 kts | 139° |
| 2026-04-27 01:10 | -19.62630 | -43.97562 | 2813 ft | 144 kts | 139° |
| 2026-04-27 01:10 | -19.63263 | -43.96981 | 2810 ft | 98 kts | 139° |
| 2026-04-27 01:10 | -19.63546 | -43.96679 | 2811 ft | 32 kts | 116° |
| 2026-04-27 01:10 | -19.63621 | -43.96466 | 2814 ft | 30 kts | 107° |
| 2026-04-27 01:11 | -19.63551 | -43.96327 | 2814 ft | 16 kts | 33° |
| 2026-04-27 01:11 | -19.63458 | -43.96301 | 2814 ft | 12 kts | 312° |
| 2026-04-27 01:11 | -19.63417 | -43.96375 | 2816 ft | 11 kts | 299° |
| 2026-04-27 01:11 | -19.63376 | -43.96438 | 2812 ft | 10 kts | 316° |
| 2026-04-27 01:12 | -19.63328 | -43.96480 | 2812 ft | 8 kts | 324° |
| 2026-04-27 01:12 | -19.63277 | -43.96510 | 2813 ft | 11 kts | 336° |
| 2026-04-27 01:12 | -19.63173 | -43.96556 | 2815 ft | 13 kts | 337° |
| 2026-04-27 01:12 | -19.63133 | -43.96523 | 2813 ft | 0 kts | 61° |